Terminal Aerodrome Forecast
Issued by NWS Cleveland, OH

Home | Current Version | Previous Version | Text Only | Print | Product List | Glossary Off
Versions: 1 2 3 4 5 6 7 8 9 10 11 12 13 14 15 16 17 18

000
FTUS41 KCLE 231138
TAFTOL
TAF
KTOL 231138Z 2312/2412 VRB03KT P6SM SCT009 BKN035
      TEMPO 2312/2314 SCT008 BKN009
     FM231400 VRB03KT P6SM BKN025
     FM231500 VRB03KT P6SM SCT030 BKN060
     FM231700 29005KT P6SM VCTS SCT030CB BKN070
     FM232100 27008KT P6SM SCT030 BKN120 PROB30 2321/2323 5SM -TSRA
      BKN030CB=

USA.gov is the U.S. government's official web portal to all federal, state and local government web resources and services.